Terminal Aerodrome Forecast
Issued by NWS

Home | Current Version | Previous Version | Text Only | Print | Product List | Glossary Off
Versions: 1 2 3 4 5 6 7 8 9 10 11 12 13 14 15 16

364
FTUS45 KGGW 051720
TAFSDY
TAF
KSDY 051720Z 0518/0618 32019G27KT 2SM BLSN VCSH BKN010 OVC030
     FM060100 31019G28KT 4SM BLSN OVC015
     FM060400 30018G27KT P6SM OVC015
     FM060900 30015KT P6SM BKN020=

USA.gov is the U.S. government's official web portal to all federal, state and local government web resources and services.